Time;durP1;ratioP1;P1;durP2;ratioP2;P2;SDS_P1;SDS_P2;PMS_P1;PMS_P2;Temp;Humidity;BMP_temperature;BMP_pressure;BME280_temperature;BME280_humidity;BME280_pressure;Samples;Min_cycle;Max_cycle;Signal;HPM_P1;HPM_P2
2022/06/20 00:00:10;;;;;;;3.97;2.50;;;26.70;44.10;;;;;;4977854;28;20446;-83
2022/06/20 00:02:43;;;;;;;5.03;1.90;;;26.70;44.10;;;;;;4978223;28;20466;-82
2022/06/20 00:05:12;;;;;;;4.07;2.10;;;26.70;44.10;;;;;;4958838;28;20566;-81
2022/06/20 00:07:40;;;;;;;3.80;2.20;;;26.70;43.90;;;;;;4965558;28;20418;-83
2022/06/20 00:10:08;;;;;;;2.67;2.00;;;26.70;44.00;;;;;;4962469;28;20586;-83
2022/06/20 00:12:36;;;;;;;3.23;1.90;;;26.70;43.90;;;;;;4969635;28;20516;-83
2022/06/20 00:15:05;;;;;;;3.43;1.90;;;26.70;44.00;;;;;;4965670;28;20485;-82
2022/06/20 00:17:34;;;;;;;2.57;1.87;;;26.70;43.90;;;;;;4956984;28;20838;-82
2022/06/20 00:20:03;;;;;;;2.23;2.03;;;26.70;43.90;;;;;;4957573;28;20514;-82
2022/06/20 00:22:31;;;;;;;2.10;1.70;;;26.70;44.10;;;;;;4938601;29;20498;-82
2022/06/20 00:25:00;;;;;;;2.33;1.60;;;26.70;44.10;;;;;;4951006;28;20475;-82
2022/06/20 00:27:28;;;;;;;6.27;2.23;;;26.70;44.10;;;;;;4965423;28;20539;-82
2022/06/20 00:29:56;;;;;;;5.17;2.10;;;26.70;44.00;;;;;;4970146;28;20470;-82
2022/06/20 00:32:24;;;;;;;4.60;1.97;;;26.70;44.00;;;;;;4977884;28;20502;-82
2022/06/20 00:34:54;;;;;;;2.30;1.97;;;26.70;44.00;;;;;;4975177;28;20485;-82
2022/06/20 00:37:22;;;;;;;2.40;2.07;;;26.70;44.10;;;;;;4974762;28;20522;-81
2022/06/20 00:39:51;;;;;;;6.90;1.80;;;26.70;44.10;;;;;;4958927;28;20444;-83
2022/06/20 00:42:19;;;;;;;2.67;1.90;;;26.70;44.00;;;;;;4964048;28;20482;-81
2022/06/20 00:44:49;;;;;;;5.43;2.10;;;26.70;44.00;;;;;;4960351;28;20547;-81
2022/06/20 00:47:19;;;;;;;3.60;1.87;;;26.80;44.10;;;;;;4957792;28;20516;-81
2022/06/20 00:49:50;;;;;;;2.33;1.77;;;26.70;44.00;;;;;;4957971;29;20466;-81
2022/06/20 00:52:22;;;;;;;2.20;2.00;;;26.70;44.00;;;;;;4958060;28;20462;-82
2022/06/20 00:54:52;;;;;;;2.20;2.00;;;26.70;44.20;;;;;;4958057;29;20541;-82
2022/06/20 00:57:22;;;;;;;3.90;1.70;;;26.60;43.90;;;;;;4957330;28;20509;-81
2022/06/20 00:59:53;;;;;;;3.13;1.60;;;26.60;44.00;;;;;;4962386;28;20451;-81
2022/06/20 01:02:24;;;;;;;1.57;1.47;;;26.60;44.10;;;;;;4958904;28;20495;-82
2022/06/20 01:04:54;;;;;;;2.47;1.80;;;26.60;44.00;;;;;;4956344;29;20538;-82
2022/06/20 01:07:25;;;;;;;2.47;1.60;;;26.60;44.10;;;;;;4958628;28;20447;-82
2022/06/20 01:09:55;;;;;;;5.73;1.87;;;26.60;44.00;;;;;;4956549;29;20440;-81
2022/06/20 01:12:24;;;;;;;1.93;1.63;;;26.50;44.00;;;;;;4959637;29;20526;-81
2022/06/20 01:14:52;;;;;;;7.10;1.70;;;26.60;44.10;;;;;;4949036;28;20531;-81
2022/06/20 01:17:24;;;;;;;2.40;1.80;;;26.60;44.00;;;;;;4969784;28;20541;-82
2022/06/20 01:19:56;;;;;;;3.73;2.00;;;26.60;43.90;;;;;;4977716;28;20847;-81
2022/06/20 01:22:35;;;;;;;3.53;2.10;;;26.50;44.10;;;;;;4976496;28;20490;-80
2022/06/20 01:25:12;;;;;;;2.57;1.90;;;26.50;44.10;;;;;;4976589;28;20566;-80
2022/06/20 01:27:43;;;;;;;4.20;1.83;;;26.50;44.10;;;;;;4976288;28;20498;-81
2022/06/20 01:30:11;;;;;;;2.70;1.93;;;26.50;44.20;;;;;;4976472;28;20473;-80
2022/06/20 01:32:39;;;;;;;2.83;1.47;;;26.50;44.00;;;;;;4972820;28;20537;-81
2022/06/20 01:35:11;;;;;;;3.50;1.80;;;26.40;44.10;;;;;;4968410;28;20521;-81
2022/06/20 01:37:40;;;;;;;2.30;2.00;;;26.40;44.20;;;;;;4976596;28;20478;-82
2022/06/20 01:40:11;;;;;;;2.17;1.60;;;26.40;44.20;;;;;;4976842;28;20537;-81
2022/06/20 01:42:39;;;;;;;4.00;2.00;;;26.40;44.20;;;;;;4976859;28;20516;-82
2022/06/20 01:45:57;;;;;;;1.87;1.67;;;26.40;44.00;;;;;;4976156;28;20564;-81
2022/06/20 01:55:34;;;;;;;1.63;1.53;;;26.30;44.30;;;;;;4976629;28;20453;-82
2022/06/20 01:58:06;;;;;;;3.67;1.90;;;26.20;44.20;;;;;;4979082;28;20440;-81
2022/06/20 02:00:34;;;;;;;2.10;1.60;;;26.30;44.80;;;;;;4980377;28;20521;-82
2022/06/20 02:03:05;;;;;;;1.87;1.60;;;26.30;44.30;;;;;;4980083;28;20432;-82
2022/06/20 02:05:32;;;;;;;1.80;1.70;;;26.30;44.20;;;;;;4975086;28;20542;-83
2022/06/20 02:08:01;;;;;;;3.03;1.60;;;26.30;44.20;;;;;;4972486;28;20434;-81
2022/06/20 02:10:31;;;;;;;2.70;1.63;;;26.30;44.20;;;;;;4979977;28;20412;-82
2022/06/20 02:12:59;;;;;;;2.70;1.77;;;26.30;44.20;;;;;;4980434;28;20465;-82
2022/06/20 02:15:28;;;;;;;1.70;1.60;;;26.30;44.80;;;;;;4980178;28;20421;-82
2022/06/20 02:17:56;;;;;;;3.47;1.70;;;26.30;44.30;;;;;;4980311;28;20446;-81
2022/06/20 02:20:26;;;;;;;1.70;1.57;;;26.30;44.20;;;;;;4979604;28;20446;-81
2022/06/20 02:22:54;;;;;;;6.90;2.00;;;26.30;44.30;;;;;;4965747;28;20545;-82
2022/06/20 02:25:24;;;;;;;3.90;1.90;;;26.30;44.20;;;;;;4974803;28;20497;-81
2022/06/20 02:27:54;;;;;;;3.23;1.90;;;26.30;44.10;;;;;;4982093;28;20514;-81
2022/06/20 02:30:22;;;;;;;5.03;2.00;;;26.20;44.10;;;;;;4982016;28;20477;-81
2022/06/20 02:32:56;;;;;;;2.53;1.70;;;26.20;44.30;;;;;;4980034;28;20512;-82
2022/06/20 02:35:25;;;;;;;1.60;1.50;;;26.20;44.30;;;;;;4980936;28;20445;-81
2022/06/20 02:37:52;;;;;;;2.93;1.80;;;26.20;44.30;;;;;;4980173;28;20473;-82
2022/06/20 02:40:21;;;;;;;2.13;1.53;;;26.20;44.40;;;;;;4976851;28;20561;-81
2022/06/20 02:42:51;;;;;;;2.97;1.97;;;26.20;44.20;;;;;;4971920;28;20496;-82
2022/06/20 02:45:19;;;;;;;2.17;1.70;;;26.20;44.30;;;;;;4980874;28;20573;-81
2022/06/20 02:47:48;;;;;;;2.53;1.47;;;26.20;44.40;;;;;;4981468;28;20456;-81
2022/06/20 02:50:18;;;;;;;2.63;1.80;;;26.20;44.40;;;;;;4981373;28;20541;-81
2022/06/20 02:52:49;;;;;;;2.33;2.00;;;26.20;44.10;;;;;;4980863;28;20473;-82
2022/06/20 02:55:17;;;;;;;3.00;1.80;;;26.20;44.20;;;;;;4980801;28;20434;-81
2022/06/20 02:57:47;;;;;;;2.23;1.80;;;26.20;44.20;;;;;;4973924;28;20454;-81
2022/06/20 03:00:17;;;;;;;1.83;1.73;;;26.20;44.30;;;;;;4972004;28;20442;-82
2022/06/20 03:02:47;;;;;;;1.90;1.80;;;26.20;44.30;;;;;;4980693;28;20473;-81
2022/06/20 03:05:15;;;;;;;1.73;1.47;;;26.20;44.30;;;;;;4980907;28;20440;-82
2022/06/20 03:07:44;;;;;;;4.00;2.00;;;26.20;44.40;;;;;;4980932;28;20532;-81
2022/06/20 03:10:25;;;;;;;1.80;1.70;;;26.10;44.40;;;;;;4978983;28;20477;-81
2022/06/20 03:12:54;;;;;;;2.00;1.60;;;26.20;44.40;;;;;;4980258;28;20480;-81
2022/06/20 03:15:21;;;;;;;2.60;1.73;;;26.20;44.40;;;;;;4972999;28;20459;-82
2022/06/20 03:17:50;;;;;;;1.60;1.43;;;26.20;44.40;;;;;;4972007;28;20470;-81
2022/06/20 03:20:19;;;;;;;2.00;1.77;;;26.10;44.30;;;;;;4979232;28;20490;-82
2022/06/20 03:22:52;;;;;;;1.90;1.70;;;26.10;44.30;;;;;;4979948;28;20470;-81
2022/06/20 03:25:21;;;;;;;1.73;1.40;;;26.10;44.50;;;;;;4980157;28;20477;-82
2022/06/20 03:27:51;;;;;;;2.80;1.70;;;26.10;44.40;;;;;;4980718;28;20488;-82
2022/06/20 03:30:25;;;;;;;2.23;1.97;;;26.20;44.40;;;;;;4974941;28;20466;-81
2022/06/20 03:32:52;;;;;;;1.90;1.80;;;26.20;44.30;;;;;;4971467;28;20487;-81
2022/06/20 03:35:21;;;;;;;2.23;2.00;;;26.10;44.30;;;;;;4979160;28;20482;-81
2022/06/20 03:37:50;;;;;;;1.80;1.70;;;26.10;44.30;;;;;;4975010;28;20512;-81
2022/06/20 03:40:18;;;;;;;7.20;1.87;;;26.10;44.30;;;;;;4979772;28;20500;-81
2022/06/20 03:42:46;;;;;;;3.33;1.67;;;26.10;44.50;;;;;;4978961;28;20455;-81
2022/06/20 03:45:15;;;;;;;2.27;1.40;;;26.10;44.40;;;;;;4978528;28;20477;-81
2022/06/20 03:47:44;;;;;;;2.60;1.93;;;26.10;44.40;;;;;;4969021;28;20590;-81
2022/06/20 03:50:14;;;;;;;2.07;1.73;;;26.10;44.30;;;;;;4965655;28;20478;-80
2022/06/20 03:52:45;;;;;;;2.80;1.83;;;26.10;44.30;;;;;;4959282;28;20558;-81
2022/06/20 03:55:17;;;;;;;1.77;1.60;;;26.10;44.40;;;;;;4958622;29;20510;-81
2022/06/20 03:57:47;;;;;;;2.03;1.83;;;26.10;44.30;;;;;;4959468;29;20452;-82
2022/06/20 04:00:16;;;;;;;1.73;1.50;;;26.10;44.50;;;;;;4959381;29;20461;-81
2022/06/20 04:02:46;;;;;;;2.70;1.90;;;26.10;44.50;;;;;;4959835;28;20498;-80
2022/06/20 04:05:17;;;;;;;1.80;1.70;;;26.10;44.30;;;;;;4971142;28;20417;-81
2022/06/20 04:07:46;;;;;;;2.13;1.60;;;26.10;44.50;;;;;;4978939;28;20511;-81
2022/06/20 04:13:06;;;;;;;4.17;1.60;;;26.10;44.30;;;;;;4979509;28;20560;-82
2022/06/20 04:15:35;;;;;;;1.80;1.70;;;26.10;44.40;;;;;;4979769;28;20487;-82
2022/06/20 04:20:53;;;;;;;1.83;1.73;;;26.00;44.60;;;;;;4970742;28;20485;-81
2022/06/20 04:23:24;;;;;;;1.67;1.40;;;26.00;44.50;;;;;;4979482;28;20550;-82
2022/06/20 04:25:57;;;;;;;1.80;1.70;;;26.00;44.80;;;;;;4978970;28;20432;-81
2022/06/20 04:28:29;;;;;;;1.80;1.70;;;26.00;44.40;;;;;;4978993;28;20463;-82
2022/06/20 04:30:58;;;;;;;2.70;1.63;;;26.10;44.60;;;;;;4978893;28;20440;-81
2022/06/20 04:33:31;;;;;;;2.50;1.93;;;26.10;44.70;;;;;;4978885;28;20496;-81
2022/06/20 04:36:05;;;;;;;3.73;1.87;;;26.10;44.50;;;;;;4976859;28;20497;-81
2022/06/20 04:38:35;;;;;;;2.83;2.10;;;26.10;44.60;;;;;;4962128;28;20514;-81
2022/06/20 04:41:06;;;;;;;1.67;1.57;;;26.10;44.60;;;;;;4978408;28;20477;-82
2022/06/20 04:43:36;;;;;;;4.90;2.20;;;26.10;44.40;;;;;;4978620;28;20445;-81
2022/06/20 04:46:06;;;;;;;2.30;1.47;;;26.10;44.50;;;;;;4978608;28;20482;-82
2022/06/20 04:48:34;;;;;;;1.90;1.70;;;26.10;44.60;;;;;;4978638;28;20501;-81
2022/06/20 04:51:06;;;;;;;1.67;1.57;;;26.10;44.40;;;;;;4978859;28;20424;-81
2022/06/20 04:53:35;;;;;;;1.60;1.50;;;26.10;44.50;;;;;;4972504;28;20507;-81
2022/06/20 04:56:07;;;;;;;2.27;1.40;;;26.10;44.50;;;;;;4968268;28;20447;-81
2022/06/20 04:58:37;;;;;;;1.70;1.60;;;26.20;44.40;;;;;;4959949;29;20460;-81
2022/06/20 05:01:05;;;;;;;1.83;1.43;;;26.10;44.40;;;;;;4959345;28;20474;-81
2022/06/20 05:03:35;;;;;;;1.87;1.77;;;26.20;44.60;;;;;;4958974;28;20519;-81
2022/06/20 05:06:03;;;;;;;2.80;1.60;;;26.20;44.40;;;;;;4959775;29;20433;-81
2022/06/20 05:08:34;;;;;;;1.77;1.67;;;26.20;44.40;;;;;;4958757;28;20496;-81
2022/06/20 05:11:04;;;;;;;1.77;1.67;;;26.10;44.40;;;;;;4962859;28;20537;-82
2022/06/20 05:13:36;;;;;;;3.03;1.93;;;26.10;44.40;;;;;;4970404;28;20479;-81
2022/06/20 05:16:04;;;;;;;1.53;1.43;;;26.10;44.40;;;;;;4959261;29;20486;-81
2022/06/20 05:18:33;;;;;;;1.77;1.63;;;26.10;44.50;;;;;;4958856;28;20450;-81
2022/06/20 05:21:03;;;;;;;1.40;1.30;;;26.10;44.40;;;;;;4959131;28;20457;-82
2022/06/20 05:23:33;;;;;;;1.60;1.50;;;26.10;44.50;;;;;;4958146;28;20475;-81
2022/06/20 05:26:01;;;;;;;1.70;1.60;;;26.10;44.50;;;;;;4958235;28;20512;-81
2022/06/20 05:28:29;;;;;;;2.50;1.30;;;26.10;44.50;;;;;;4964753;28;20500;-82
2022/06/20 05:30:59;;;;;;;1.80;1.70;;;26.20;44.50;;;;;;4961609;28;20469;-82
2022/06/20 05:33:29;;;;;;;1.40;1.30;;;26.20;44.60;;;;;;4981571;28;20474;-81
2022/06/20 05:35:58;;;;;;;2.00;1.73;;;26.20;44.60;;;;;;4981465;28;20499;-81
2022/06/20 05:38:28;;;;;;;2.33;1.57;;;26.10;44.70;;;;;;4982354;28;20481;-82
2022/06/20 05:40:57;;;;;;;4.27;1.70;;;26.20;44.70;;;;;;4982470;28;20452;-81
2022/06/20 05:43:28;;;;;;;2.07;1.50;;;26.20;44.70;;;;;;4982444;28;20474;-81
2022/06/20 05:45:58;;;;;;;1.70;1.60;;;26.20;44.50;;;;;;4972951;28;20880;-81
2022/06/20 05:48:29;;;;;;;1.57;1.30;;;26.20;44.40;;;;;;4976979;28;20557;-81
2022/06/20 05:50:58;;;;;;;1.90;1.63;;;26.20;44.40;;;;;;4982216;28;20517;-82
2022/06/20 05:53:29;;;;;;;2.90;1.83;;;26.20;44.50;;;;;;4981306;28;20448;-81
2022/06/20 05:55:57;;;;;;;1.70;1.50;;;26.20;44.50;;;;;;4980078;28;20463;-81
2022/06/20 05:58:27;;;;;;;1.40;1.30;;;26.30;44.50;;;;;;4980730;28;20496;-81
2022/06/20 06:00:56;;;;;;;1.63;1.53;;;26.20;44.30;;;;;;4977377;28;20458;-81
2022/06/20 06:03:29;;;;;;;2.20;1.60;;;26.20;44.40;;;;;;4973383;28;20531;-82
2022/06/20 06:06:01;;;;;;;1.50;1.40;;;26.20;44.50;;;;;;4981716;28;20408;-82
2022/06/20 06:08:31;;;;;;;1.77;1.67;;;26.30;44.60;;;;;;4982206;28;20470;-81
2022/06/20 06:11:18;;;;;;;2.80;1.67;;;26.20;44.40;;;;;;4981195;28;20449;-81
2022/06/20 06:13:50;;;;;;;4.80;1.40;;;26.30;44.50;;;;;;4981814;28;20521;-81
2022/06/20 06:19:08;;;;;;;1.70;1.60;;;26.30;44.40;;;;;;4962919;28;20443;-80
2022/06/20 06:21:36;;;;;;;1.43;1.33;;;26.30;44.60;;;;;;4961213;29;20473;-81
2022/06/20 06:24:04;;;;;;;1.93;1.63;;;26.30;44.50;;;;;;4962013;28;20474;-81
2022/06/20 06:26:32;;;;;;;1.60;1.50;;;26.30;44.40;;;;;;4962050;28;20868;-81
2022/06/20 06:29:00;;;;;;;1.50;1.40;;;26.30;44.40;;;;;;4962168;29;20481;-81
2022/06/20 06:31:29;;;;;;;1.63;1.53;;;26.30;44.30;;;;;;4962301;29;20535;-82
2022/06/20 06:33:58;;;;;;;1.57;1.47;;;26.30;44.30;;;;;;4964416;28;20441;-81
2022/06/20 06:36:30;;;;;;;1.43;1.10;;;26.40;44.20;;;;;;4973588;28;20514;-83
2022/06/20 06:39:03;;;;;;;1.63;1.53;;;26.40;44.20;;;;;;4962317;29;20446;-81
2022/06/20 06:41:33;;;;;;;1.47;1.47;;;26.40;44.20;;;;;;4962415;29;20452;-81
2022/06/20 06:44:01;;;;;;;2.00;1.20;;;26.40;44.10;;;;;;4960273;28;20417;-81
2022/06/20 06:46:32;;;;;;;1.83;1.50;;;26.40;44.00;;;;;;4961614;28;20538;-81
2022/06/20 06:49:09;;;;;;;1.63;1.50;;;26.50;44.20;;;;;;4960980;29;20544;-81
2022/06/20 06:51:41;;;;;;;1.47;1.30;;;26.50;43.80;;;;;;4961038;28;20577;-81
2022/06/20 06:54:13;;;;;;;1.97;1.70;;;26.50;44.40;;;;;;4972607;28;20401;-81
2022/06/20 06:56:43;;;;;;;2.50;1.50;;;26.60;43.70;;;;;;4980850;28;20541;-80
2022/06/20 06:59:13;;;;;;;1.50;1.40;;;26.60;43.80;;;;;;4980501;28;20427;-81
2022/06/20 07:01:43;;;;;;;1.33;1.23;;;26.70;43.60;;;;;;4980581;28;20470;-81
2022/06/20 07:04:12;;;;;;;1.37;1.27;;;26.70;43.60;;;;;;4980159;28;20436;-81
2022/06/20 07:06:43;;;;;;;1.30;1.20;;;26.80;43.50;;;;;;4980465;28;20488;-81
2022/06/20 07:09:14;;;;;;;1.70;1.60;;;26.80;43.40;;;;;;4975764;28;20557;-81
2022/06/20 07:11:44;;;;;;;1.50;1.40;;;26.80;43.30;;;;;;4971738;28;20526;-81
2022/06/20 07:14:16;;;;;;;1.50;1.40;;;26.90;43.30;;;;;;4980278;28;20432;-81
2022/06/20 07:16:46;;;;;;;1.70;1.60;;;26.90;43.50;;;;;;4980223;28;20454;-80
2022/06/20 07:19:14;;;;;;;1.40;1.30;;;27.00;43.10;;;;;;4979658;28;20470;-81
2022/06/20 07:21:44;;;;;;;1.63;1.53;;;27.00;43.10;;;;;;4979263;28;20553;-81
2022/06/20 07:24:14;;;;;;;1.50;1.40;;;27.00;43.10;;;;;;4978298;28;20450;-81
2022/06/20 07:26:44;;;;;;;1.70;1.60;;;27.00;42.90;;;;;;4968997;28;20410;-81
2022/06/20 07:29:15;;;;;;;1.37;1.27;;;27.10;42.90;;;;;;4979508;28;20481;-81
2022/06/20 07:31:44;;;;;;;1.50;1.40;;;27.00;42.80;;;;;;4979826;28;20486;-82
2022/06/20 07:34:15;;;;;;;2.30;1.40;;;27.10;42.80;;;;;;4979561;28;20450;-81
2022/06/20 07:36:46;;;;;;;1.50;1.40;;;27.20;42.80;;;;;;4979889;28;20456;-81
2022/06/20 07:39:20;;;;;;;1.43;1.30;;;27.10;42.70;;;;;;4979600;28;20481;-81
2022/06/20 07:41:50;;;;;;;2.10;1.60;;;27.20;42.70;;;;;;4970201;28;20479;-81
2022/06/20 07:44:20;;;;;;;1.53;1.33;;;27.20;42.60;;;;;;4965608;28;20474;-81
2022/06/20 07:46:50;;;;;;;1.20;1.20;;;27.20;42.60;;;;;;4960218;28;20471;-80
2022/06/20 07:49:22;;;;;;;3.50;1.77;;;27.20;42.50;;;;;;4960196;29;20478;-82
2022/06/20 07:51:52;;;;;;;1.83;1.50;;;27.20;42.50;;;;;;4960169;29;20501;-80
2022/06/20 07:54:23;;;;;;;1.47;1.43;;;27.20;42.40;;;;;;4959849;28;20456;-82
2022/06/20 07:56:52;;;;;;;1.30;1.20;;;27.20;42.50;;;;;;4958819;29;20479;-82
2022/06/20 07:59:23;;;;;;;1.57;1.30;;;27.30;42.40;;;;;;4967546;28;20450;-82
2022/06/20 08:01:56;;;;;;;1.33;1.17;;;27.40;42.40;;;;;;4977678;28;20450;-80
2022/06/20 08:04:27;;;;;;;1.60;1.50;;;27.40;42.20;;;;;;4979470;28;20485;-81
2022/06/20 08:06:58;;;;;;;1.40;1.30;;;27.50;42.20;;;;;;4978383;28;20450;-81
2022/06/20 08:09:29;;;;;;;1.80;1.70;;;27.60;42.10;;;;;;4978874;28;20457;-80
2022/06/20 08:12:00;;;;;;;1.63;1.50;;;27.60;42.10;;;;;;4977820;28;20501;-81
2022/06/20 08:14:31;;;;;;;1.70;1.60;;;27.70;41.90;;;;;;4973400;28;20538;-80
2022/06/20 08:17:01;;;;;;;1.77;1.50;;;27.70;41.80;;;;;;4967116;28;20439;-81
2022/06/20 08:19:29;;;;;;;1.40;1.30;;;27.70;41.90;;;;;;4959348;28;20443;-81
2022/06/20 08:22:00;;;;;;;1.67;1.30;;;27.70;41.80;;;;;;4958977;28;20537;-81
2022/06/20 08:24:31;;;;;;;1.80;1.67;;;27.80;41.80;;;;;;4956209;29;20538;-80
2022/06/20 08:27:01;;;;;;;1.57;1.47;;;27.70;41.80;;;;;;4953510;29;20451;-80
2022/06/20 08:29:33;;;;;;;1.43;1.33;;;27.70;41.60;;;;;;4958911;29;20465;-80
2022/06/20 08:32:10;;;;;;;2.50;1.40;;;27.70;41.70;;;;;;4961956;28;20485;-80
2022/06/20 08:34:42;;;;;;;1.83;1.70;;;27.60;42.30;;;;;;4970483;28;20569;-80
2022/06/20 08:37:22;;;;;;;1.70;1.60;;;27.60;41.90;;;;;;4977602;28;20516;-80
2022/06/20 08:39:53;;;;;;;2.77;1.47;;;27.60;42.00;;;;;;4978830;28;20457;-81
2022/06/20 08:42:58;;;;;;;1.70;1.20;;;27.60;41.90;;;;;;4978352;28;20417;-81
2022/06/20 08:45:54;;;;;;;1.73;1.50;;;27.50;42.00;;;;;;4938010;29;20411;-81
2022/06/20 08:49:05;;;;;;;1.93;1.63;;;27.50;42.00;;;;;;4966483;28;20486;-80
2022/06/20 08:52:08;;;;;;;1.30;1.10;;;27.50;42.10;;;;;;4969688;28;20548;-80
2022/06/20 08:55:01;;;;;;;1.63;1.53;;;27.50;42.20;;;;;;4976253;28;20508;-79
2022/06/20 08:57:33;;;;;;;3.23;1.70;;;27.50;42.20;;;;;;4976410;28;20444;-81
2022/06/20 09:00:25;;;;;;;5.60;2.40;;;27.50;42.20;;;;;;4977468;28;20408;-80
2022/06/20 09:03:13;;;;;;;7.63;1.97;;;27.60;43.30;;;;;;4958751;28;20555;-82
2022/06/20 09:05:47;;;;;;;10.80;2.30;;;27.60;43.90;;;;;;4960128;28;20483;-82
2022/06/20 09:08:29;;;;;;;3.47;2.10;;;27.60;44.60;;;;;;4970404;28;20410;-82
2022/06/20 09:11:05;;;;;;;5.40;2.33;;;27.80;44.50;;;;;;4975736;28;20513;-83
2022/06/20 09:13:53;;;;;;;4.73;2.10;;;28.00;44.40;;;;;;4977638;28;20433;-82
2022/06/20 09:16:25;;;;;;;2.60;2.10;;;28.10;44.30;;;;;;4978534;28;20448;-82
2022/06/20 09:19:18;;;;;;;8.17;2.50;;;28.30;44.00;;;;;;4977534;28;20489;-83
2022/06/20 09:21:56;;;;;;;4.37;2.33;;;28.30;43.70;;;;;;4980172;28;20529;-83
2022/06/20 09:24:29;;;;;;;2.33;2.03;;;28.50;43.70;;;;;;4965893;28;20495;-83
2022/06/20 09:27:03;;;;;;;6.20;2.10;;;28.60;43.40;;;;;;4949489;28;20454;-83
2022/06/20 09:29:42;;;;;;;5.77;3.07;;;28.60;43.10;;;;;;4961797;29;20483;-83
2022/06/20 09:32:45;;;;;;;3.17;2.27;;;28.70;42.80;;;;;;4960645;29;20486;-83
2022/06/20 09:35:30;;;;;;;3.20;2.00;;;28.70;42.30;;;;;;4945641;28;20450;-83
2022/06/20 09:38:22;;;;;;;3.97;2.37;;;28.70;42.20;;;;;;4977598;28;20509;-84
2022/06/20 09:40:52;;;;;;;5.97;2.23;;;28.50;42.30;;;;;;4974525;28;20545;-83
2022/06/20 09:43:23;;;;;;;3.90;2.10;;;28.50;42.70;;;;;;4971654;28;20557;-83
2022/06/20 09:45:56;;;;;;;3.03;1.80;;;28.60;42.60;;;;;;4979323;28;20484;-83
2022/06/20 09:48:28;;;;;;;4.63;2.07;;;28.80;42.20;;;;;;4979746;28;20483;-83
2022/06/20 09:50:59;;;;;;;3.77;1.90;;;28.90;41.90;;;;;;4940718;29;20479;-83
2022/06/20 09:53:35;;;;;;;2.23;2.00;;;29.10;41.60;;;;;;4961026;28;20924;-83
2022/06/20 09:56:06;;;;;;;2.23;1.93;;;29.00;41.00;;;;;;4962611;28;20508;-84
2022/06/20 09:58:39;;;;;;;2.07;1.77;;;28.90;40.70;;;;;;4968026;28;20477;-83
2022/06/20 10:01:11;;;;;;;3.63;1.87;;;28.80;40.60;;;;;;4977930;28;20497;-82
2022/06/20 10:03:42;;;;;;;2.13;1.97;;;28.70;40.70;;;;;;4976755;28;20458;-82
2022/06/20 10:06:14;;;;;;;1.70;1.60;;;28.70;40.80;;;;;;4975313;28;20485;-82
2022/06/20 10:08:49;;;;;;;2.00;1.70;;;28.90;41.00;;;;;;4976694;28;20469;-82
2022/06/20 10:11:19;;;;;;;1.93;1.50;;;28.90;40.60;;;;;;4958475;28;20504;-82
2022/06/20 10:13:51;;;;;;;1.90;1.30;;;28.90;40.50;;;;;;4967518;28;20437;-83
2022/06/20 10:16:23;;;;;;;2.30;1.50;;;28.90;40.30;;;;;;4975472;28;20542;-83
2022/06/20 10:18:54;;;;;;;2.03;1.60;;;29.10;40.20;;;;;;4979363;28;20450;-83
2022/06/20 10:21:24;;;;;;;2.90;1.77;;;29.20;39.70;;;;;;4979354;28;20537;-83
2022/06/20 10:24:04;;;;;;;1.53;1.33;;;29.30;39.70;;;;;;4981055;28;20505;-83
2022/06/20 10:26:41;;;;;;;2.90;1.13;;;29.40;39.60;;;;;;4941384;29;20478;-83
2022/06/20 10:29:18;;;;;;;1.80;1.70;;;29.40;39.50;;;;;;4948260;28;20965;-84
2022/06/20 10:31:48;;;;;;;2.70;1.43;;;29.50;39.10;;;;;;4970267;28;20554;-84
2022/06/20 10:34:21;;;;;;;1.33;1.20;;;29.60;39.00;;;;;;4968862;28;20509;-84
2022/06/20 10:36:51;;;;;;;1.50;1.30;;;29.70;39.00;;;;;;4963437;28;20450;-84
2022/06/20 10:39:26;;;;;;;2.80;1.63;;;29.70;38.70;;;;;;4966410;28;20451;-83
2022/06/20 10:42:05;;;;;;;1.90;1.20;;;29.70;38.90;;;;;;4975071;28;20492;-83
2022/06/20 10:44:39;;;;;;;1.37;1.17;;;29.60;38.80;;;;;;4974029;28;20534;-83
2022/06/20 10:47:15;;;;;;;2.03;1.40;;;29.50;39.00;;;;;;4962128;28;20484;-81
2022/06/20 10:49:51;;;;;;;3.20;1.60;;;29.40;39.00;;;;;;4960837;29;20501;-82
2022/06/20 10:52:37;;;;;;;1.70;1.60;;;29.30;39.00;;;;;;4960560;29;20470;-83
2022/06/20 10:55:13;;;;;;;1.80;1.50;;;29.20;39.10;;;;;;4960230;29;20474;-83
2022/06/20 10:57:49;;;;;;;1.30;1.20;;;29.30;39.20;;;;;;4969554;28;20473;-84
2022/06/20 11:00:20;;;;;;;1.20;1.20;;;29.50;39.30;;;;;;4980886;28;20838;-82
2022/06/20 11:02:57;;;;;;;3.00;1.30;;;29.60;39.20;;;;;;4975036;28;20556;-82
2022/06/20 11:05:29;;;;;;;1.00;1.00;;;29.70;39.40;;;;;;4967561;28;20451;-82
2022/06/20 11:08:00;;;;;;;1.63;1.20;;;29.80;39.40;;;;;;4960796;29;20505;-83
2022/06/20 11:10:51;;;;;;;1.37;1.27;;;29.90;39.40;;;;;;4962892;28;20505;-83
2022/06/20 11:13:26;;;;;;;1.20;1.20;;;30.00;39.20;;;;;;4978579;28;20503;-81
2022/06/20 11:16:03;;;;;;;1.07;1.07;;;30.10;39.20;;;;;;4978547;28;20450;-82
2022/06/20 11:18:40;;;;;;;1.27;1.00;;;30.10;38.80;;;;;;4979719;28;20446;-82
2022/06/20 11:21:14;;;;;;;4.30;1.20;;;30.00;38.60;;;;;;4970999;28;20541;-82
2022/06/20 11:23:46;;;;;;;1.10;1.00;;;30.00;38.50;;;;;;4973352;28;20458;-83
2022/06/20 11:26:16;;;;;;;1.10;1.00;;;29.90;38.40;;;;;;4970377;28;20542;-83
2022/06/20 11:29:00;;;;;;;2.00;1.20;;;29.70;38.60;;;;;;4979761;28;20438;-81
2022/06/20 11:31:38;;;;;;;1.07;1.00;;;29.70;39.10;;;;;;4977592;28;20532;-83
2022/06/20 11:34:37;;;;;;;1.30;1.20;;;29.60;39.40;;;;;;4979811;28;20440;-82
2022/06/20 11:37:17;;;;;;;2.27;1.20;;;29.50;39.40;;;;;;4944803;28;20542;-82
2022/06/20 11:39:51;;;;;;;1.77;1.50;;;29.40;39.60;;;;;;4978849;28;20477;-83
2022/06/20 11:42:31;;;;;;;1.20;1.10;;;29.40;39.80;;;;;;4979080;28;20488;-83
2022/06/20 11:45:09;;;;;;;3.27;1.80;;;29.40;39.70;;;;;;4979248;28;20462;-82
2022/06/20 11:47:58;;;;;;;1.60;1.37;;;29.30;39.80;;;;;;4977687;28;20533;-83
2022/06/20 11:50:33;;;;;;;1.40;1.40;;;29.40;39.80;;;;;;4976145;28;20562;-82
2022/06/20 11:53:22;;;;;;;3.23;1.30;;;29.50;39.60;;;;;;4978958;28;20582;-82
2022/06/20 11:55:53;;;;;;;2.00;1.17;;;29.50;39.70;;;;;;4966653;28;20439;-82
2022/06/20 11:58:27;;;;;;;1.67;1.30;;;29.50;39.70;;;;;;4959816;28;20447;-82
2022/06/20 12:01:00;;;;;;;1.60;1.50;;;29.50;39.80;;;;;;4959852;29;20439;-83
2022/06/20 12:03:33;;;;;;;1.30;1.20;;;29.60;39.70;;;;;;4967547;28;20476;-82
2022/06/20 12:06:05;;;;;;;1.17;1.07;;;29.60;39.40;;;;;;4963730;28;20985;-82
2022/06/20 12:08:37;;;;;;;1.20;1.10;;;29.50;39.30;;;;;;4959986;28;20530;-83
2022/06/20 12:11:09;;;;;;;1.43;1.10;;;29.50;39.40;;;;;;4968280;28;20556;-83
2022/06/20 12:13:44;;;;;;;1.40;1.30;;;29.40;39.40;;;;;;4967144;28;20430;-82
2022/06/20 12:16:32;;;;;;;1.20;1.10;;;29.40;39.40;;;;;;4979403;28;20474;-82
2022/06/20 12:24:42;;;;;;;2.40;1.13;;;29.50;39.60;;;;;;4962255;28;20549;-81
2022/06/20 12:27:11;;;;;;;1.33;1.23;;;29.60;39.40;;;;;;4973390;28;20458;-82
2022/06/20 12:29:39;;;;;;;1.40;1.20;;;29.60;39.40;;;;;;4979076;28;20460;-82
2022/06/20 12:32:20;;;;;;;1.20;1.20;;;29.50;39.50;;;;;;4978586;28;20489;-82
2022/06/20 12:34:56;;;;;;;1.77;1.17;;;29.50;39.30;;;;;;4978492;28;20451;-82
2022/06/20 12:37:27;;;;;;;1.00;1.00;;;29.60;39.30;;;;;;4979017;28;20476;-82
2022/06/20 12:39:59;;;;;;;1.10;1.10;;;29.70;38.90;;;;;;4971245;28;20430;-82
2022/06/20 12:42:32;;;;;;;1.13;1.10;;;29.70;38.70;;;;;;4966486;28;20470;-82
2022/06/20 12:45:07;;;;;;;2.20;0.90;;;29.70;38.70;;;;;;4956545;28;20471;-82
2022/06/20 12:47:55;;;;;;;1.30;1.20;;;29.80;38.90;;;;;;4957163;28;20462;-81
2022/06/20 12:50:25;;;;;;;2.97;1.40;;;29.90;38.80;;;;;;4968715;28;20456;-83
2022/06/20 12:53:18;;;;;;;2.63;1.30;;;30.00;38.90;;;;;;4969419;28;20521;-82
2022/06/20 12:55:58;;;;;;;4.10;1.57;;;30.10;38.80;;;;;;4951360;28;20530;-82
2022/06/20 12:58:36;;;;;;;2.80;1.00;;;30.10;38.60;;;;;;4976791;28;20476;-82
2022/06/20 13:01:06;;;;;;;1.83;1.43;;;29.90;38.70;;;;;;4980281;28;20506;-82
2022/06/20 13:03:44;;;;;;;3.07;1.20;;;29.90;38.90;;;;;;4980310;28;20486;-82
2022/06/20 13:06:54;;;;;;;2.83;1.07;;;29.80;39.00;;;;;;4963337;28;20447;-82
2022/06/20 13:09:50;;;;;;;1.10;1.10;;;29.90;39.20;;;;;;4962612;28;20466;-82
2022/06/20 13:12:28;;;;;;;2.27;1.13;;;29.80;39.10;;;;;;4976209;28;20475;-82
2022/06/20 13:15:24;;;;;;;1.83;1.13;;;29.80;39.30;;;;;;4977361;28;20445;-82
2022/06/20 13:17:58;;;;;;;1.20;1.10;;;29.80;39.30;;;;;;4978045;28;20498;-82
2022/06/20 13:20:36;;;;;;;3.63;1.47;;;29.70;39.30;;;;;;4975519;28;20501;-81
2022/06/20 13:23:30;;;;;;;1.33;1.00;;;29.70;39.40;;;;;;4978458;28;20542;-82
2022/06/20 13:26:06;;;;;;;1.50;1.40;;;29.70;39.30;;;;;;4969055;28;20486;-81
2022/06/20 13:28:37;;;;;;;2.40;1.20;;;29.70;39.40;;;;;;4959672;29;20546;-81
2022/06/20 13:31:10;;;;;;;1.90;1.10;;;29.70;39.50;;;;;;4962818;28;20469;-81
2022/06/20 13:33:42;;;;;;;1.30;1.20;;;29.60;39.40;;;;;;4971531;28;20503;-82
2022/06/20 13:36:20;;;;;;;1.57;1.17;;;29.60;39.40;;;;;;4958681;29;20502;-81
2022/06/20 13:38:52;;;;;;;1.50;1.40;;;29.60;39.50;;;;;;4958835;29;20450;-81